createdAt,value
2023-02-22T00:00:46.102Z,26.98
2023-02-22T00:03:39.195Z,24.45
2023-02-22T00:06:06.327Z,25.92
2023-02-22T00:08:34.569Z,24.85
2023-02-22T00:11:03.274Z,26.55
2023-02-22T00:13:29.972Z,23.08
2023-02-22T00:16:00.194Z,28.10
2023-02-22T00:18:29.986Z,24.70
2023-02-22T00:20:59.906Z,23.33
2023-02-22T00:23:28.439Z,24.02
2023-02-22T00:25:55.421Z,25.92
2023-02-22T00:28:24.121Z,23.48
2023-02-22T00:30:51.130Z,28.45
2023-02-22T00:33:17.998Z,25.10
2023-02-22T00:35:46.030Z,23.30
2023-02-22T00:38:13.907Z,21.85
2023-02-22T00:40:40.544Z,26.42
2023-02-22T00:43:07.318Z,24.85
2023-02-22T00:45:36.047Z,25.25
2023-02-22T00:48:03.399Z,22.77
2023-02-22T00:50:31.028Z,26.98
2023-02-22T00:52:59.488Z,29.88
2023-02-22T00:55:30.685Z,23.08
2023-02-22T00:57:57.469Z,26.08
2023-02-22T01:00:25.899Z,26.50
2023-02-22T01:02:52.902Z,28.58
2023-02-22T01:05:22.281Z,29.75
2023-02-22T01:07:49.692Z,31.98
2023-02-22T01:10:17.950Z,31.90
2023-02-22T01:12:44.710Z,36.63
2023-02-22T01:15:11.388Z,33.60
2023-02-22T01:17:38.782Z,38.67
2023-02-22T01:20:12.709Z,35.15
2023-02-22T01:22:43.494Z,35.17
2023-02-22T01:25:10.879Z,40.15
2023-02-22T01:27:38.656Z,35.60
2023-02-22T01:30:08.588Z,31.90
2023-02-22T01:32:36.434Z,33.30
2023-02-22T01:35:04.996Z,37.25
2023-02-22T01:37:32.365Z,37.40
2023-02-22T01:40:00.208Z,37.15
2023-02-22T01:42:27.021Z,34.97
2023-02-22T01:45:30.915Z,37.53
2023-02-22T01:48:03.261Z,35.17
2023-02-22T01:50:29.937Z,35.10
2023-02-22T01:52:56.844Z,37.38
2023-02-22T01:55:23.689Z,35.92
2023-02-22T01:57:50.272Z,33.88
2023-02-22T02:00:21.791Z,40.50
2023-02-22T02:02:53.306Z,39.95
2023-02-22T02:05:19.965Z,36.55
2023-02-22T02:07:46.648Z,37.83
2023-02-22T02:10:16.949Z,38.33
2023-02-22T02:12:45.377Z,36.80
2023-02-22T02:15:25.274Z,43.25
2023-02-22T02:17:53.816Z,41.38
2023-02-22T02:20:38.676Z,43.30
2023-02-22T02:23:43.131Z,46.03
2023-02-22T02:26:43.331Z,42.53
2023-02-22T02:29:18.600Z,39.85
2023-02-22T02:32:21.672Z,39.15
2023-02-22T02:34:54.264Z,40.15
2023-02-22T02:37:33.230Z,36.63
2023-02-22T02:40:41.289Z,37.22
2023-02-22T02:43:29.967Z,42.55
2023-02-22T02:46:19.494Z,40.15
2023-02-22T02:48:50.376Z,43.15
2023-02-22T02:51:17.495Z,37.70
2023-02-22T02:53:46.172Z,42.78
2023-02-22T02:56:12.880Z,40.17
2023-02-22T02:58:49.096Z,41.75
2023-02-22T03:01:27.139Z,42.40
2023-02-22T03:04:22.913Z,43.65
2023-02-22T03:06:57.332Z,42.88
2023-02-22T03:09:46.725Z,42.90
2023-02-22T03:12:17.670Z,44.28
2023-02-22T03:15:01.580Z,40.90
2023-02-22T03:17:41.452Z,46.33
2023-02-22T03:20:45.404Z,44.20
2023-02-22T03:23:24.704Z,41.85
2023-02-22T03:26:01.705Z,37.90
2023-02-22T03:28:28.550Z,40.70
2023-02-22T03:31:05.431Z,41.28
2023-02-22T03:33:41.534Z,43.70
2023-02-22T03:36:16.091Z,41.83
2023-02-22T03:38:42.987Z,46.40
2023-02-22T03:41:09.988Z,41.15
2023-02-22T03:43:44.654Z,40.65
2023-02-22T03:46:11.680Z,46.58
2023-02-22T03:48:51.695Z,43.53
2023-02-22T03:51:18.835Z,44.53
2023-02-22T03:53:45.759Z,45.92
2023-02-22T03:56:15.255Z,45.15
2023-02-22T03:58:44.034Z,42.08
2023-02-22T04:01:11.338Z,45.75
2023-02-22T04:03:38.197Z,39.55
2023-02-22T04:06:04.980Z,42.95
2023-02-22T04:08:31.841Z,44.85
2023-02-22T04:10:58.842Z,40.13
2023-02-22T04:13:27.619Z,39.58
2023-02-22T04:15:54.336Z,45.05
2023-02-22T04:18:20.970Z,45.75
2023-02-22T04:20:47.585Z,47.08
2023-02-22T04:23:14.213Z,44.58
2023-02-22T04:25:41.048Z,43.75
2023-02-22T04:28:07.766Z,43.35
2023-02-22T04:30:34.451Z,40.97
2023-02-22T04:33:01.103Z,41.83
2023-02-22T04:35:27.979Z,41.60
2023-02-22T04:37:54.646Z,47.20
2023-02-22T04:40:21.483Z,44.70
2023-02-22T04:42:48.352Z,39.92
2023-02-22T04:45:14.992Z,49.10
2023-02-22T04:47:41.625Z,42.17
2023-02-22T04:50:08.893Z,41.95
2023-02-22T04:52:35.555Z,42.95
2023-02-22T04:55:02.238Z,42.17
2023-02-22T04:57:29.034Z,40.45
2023-02-22T04:59:56.003Z,49.50
2023-02-22T05:02:22.598Z,43.45
2023-02-22T05:04:49.348Z,40.78
2023-02-22T05:07:16.125Z,47.22
2023-02-22T05:09:42.769Z,42.00
2023-02-22T05:12:09.424Z,38.28
2023-02-22T05:14:36.115Z,39.05
2023-02-22T05:17:03.099Z,42.50
2023-02-22T05:19:31.668Z,45.72
2023-02-22T05:21:58.276Z,44.55
2023-02-22T05:24:25.165Z,41.05
2023-02-22T05:26:53.181Z,36.92
2023-02-22T05:29:20.337Z,37.63
2023-02-22T05:31:47.019Z,42.20
2023-02-22T05:34:14.320Z,39.67
2023-02-22T05:36:41.226Z,40.40
2023-02-22T05:39:07.911Z,35.08
2023-02-22T05:41:34.559Z,41.05
2023-02-22T05:44:03.350Z,41.75
2023-02-22T05:46:30.007Z,38.47
2023-02-22T05:48:56.685Z,40.33
2023-02-22T05:51:23.328Z,37.90
2023-02-22T05:53:52.091Z,37.53
2023-02-22T05:56:28.003Z,36.95
2023-02-22T05:58:54.859Z,36.10
2023-02-22T06:01:21.866Z,32.10
2023-02-22T06:03:49.316Z,36.75
2023-02-22T06:06:16.556Z,37.92
2023-02-22T06:08:43.258Z,37.03
2023-02-22T06:11:10.306Z,38.08
2023-02-22T06:13:36.964Z,41.58
2023-02-22T06:16:03.972Z,33.60
2023-02-22T06:18:31.311Z,35.38
2023-02-22T06:20:58.892Z,35.60
2023-02-22T06:23:25.919Z,37.25
2023-02-22T06:25:52.548Z,38.08
2023-02-22T06:28:19.207Z,36.95
2023-02-22T06:30:46.225Z,42.65
2023-02-22T06:33:12.955Z,34.83
2023-02-22T06:35:39.620Z,36.10
2023-02-22T06:38:06.260Z,33.15
2023-02-22T06:40:32.952Z,34.28
2023-02-22T06:42:59.954Z,32.45
2023-02-22T06:45:26.716Z,37.35
2023-02-22T06:47:53.390Z,31.73
2023-02-22T06:50:25.276Z,32.85
2023-02-22T06:52:52.161Z,34.22
2023-02-22T06:55:24.071Z,35.92
2023-02-22T06:57:50.682Z,34.30
2023-02-22T07:00:18.822Z,36.00
2023-02-22T07:02:46.615Z,30.92
2023-02-22T07:05:13.232Z,34.03
2023-02-22T07:07:40.044Z,28.52
2023-02-22T07:10:08.186Z,31.70
2023-02-22T07:12:35.337Z,26.25
2023-02-22T07:15:01.969Z,30.00
2023-02-22T07:17:28.575Z,31.35
2023-02-22T07:19:55.196Z,30.38
2023-02-22T07:22:21.795Z,34.20
2023-02-22T07:24:48.428Z,31.42
2023-02-22T07:27:15.069Z,36.28
2023-02-22T07:29:45.112Z,35.03
2023-02-22T07:32:12.088Z,35.08
2023-02-22T07:34:38.797Z,29.90
2023-02-22T07:37:05.425Z,31.42
2023-02-22T07:39:32.088Z,31.15
2023-02-22T07:41:59.178Z,28.45
2023-02-22T07:44:25.795Z,30.55
2023-02-22T07:46:52.456Z,30.75
2023-02-22T07:49:19.094Z,28.17
2023-02-22T07:51:45.737Z,30.35
2023-02-22T07:54:12.349Z,26.30
2023-02-22T07:56:47.163Z,26.70
2023-02-22T07:59:14.401Z,25.60
2023-02-22T08:01:41.120Z,28.50
2023-02-22T08:04:07.835Z,28.25
2023-02-22T08:06:34.597Z,26.98
2023-02-22T08:09:01.232Z,27.27
2023-02-22T08:11:27.888Z,28.17
2023-02-22T08:13:54.537Z,26.25
2023-02-22T08:16:21.167Z,28.10
2023-02-22T08:18:47.800Z,28.02
2023-02-22T08:21:14.831Z,29.20
2023-02-22T08:23:41.747Z,27.77
2023-02-22T08:26:09.933Z,30.80
2023-02-22T08:28:36.869Z,29.42
2023-02-22T08:31:03.497Z,32.08
2023-02-22T08:33:30.374Z,29.63
2023-02-22T08:35:57.017Z,31.05
2023-02-22T08:38:26.321Z,29.67
2023-02-22T08:40:53.091Z,29.67
2023-02-22T08:43:19.970Z,29.10
2023-02-22T08:45:47.014Z,30.10
2023-02-22T08:48:14.144Z,28.23
2023-02-22T08:50:41.858Z,29.55
2023-02-22T08:53:09.107Z,26.67
2023-02-22T08:55:37.986Z,30.05
2023-02-22T08:58:05.472Z,28.42
2023-02-22T09:00:33.474Z,29.58
2023-02-22T09:03:03.445Z,25.85
2023-02-22T09:05:31.447Z,27.63
2023-02-22T09:07:58.585Z,23.75
2023-02-22T09:10:26.962Z,26.65
2023-02-22T09:12:55.445Z,25.42
2023-02-22T09:15:22.473Z,27.77
2023-02-22T09:17:49.209Z,23.02
2023-02-22T09:20:17.905Z,24.88
2023-02-22T09:22:48.084Z,26.17
2023-02-22T09:25:17.089Z,23.90
2023-02-22T09:27:44.336Z,23.00
2023-02-22T09:30:23.404Z,24.08
2023-02-22T09:32:54.458Z,24.25
2023-02-22T09:35:26.844Z,24.40
2023-02-22T09:37:59.186Z,26.33
2023-02-22T09:40:33.059Z,22.77
2023-02-22T09:43:14.776Z,26.15
2023-02-22T09:46:03.729Z,22.98
2023-02-22T09:48:31.849Z,25.17
2023-02-22T09:50:58.998Z,25.42
2023-02-22T09:53:30.074Z,23.23
2023-02-22T09:56:04.618Z,25.58
2023-02-22T09:58:35.223Z,23.92
2023-02-22T10:01:18.744Z,26.67
2023-02-22T10:04:13.334Z,23.45
2023-02-22T10:06:41.213Z,23.88
2023-02-22T10:09:09.354Z,27.10
2023-02-22T10:11:56.240Z,25.98
2023-02-22T10:14:34.745Z,24.15
2023-02-22T10:17:14.377Z,23.70
2023-02-22T10:19:44.017Z,26.65
2023-02-22T10:22:30.647Z,26.00
2023-02-22T10:25:05.034Z,27.25
2023-02-22T10:27:42.889Z,22.40
2023-02-22T10:30:25.346Z,22.98
2023-02-22T10:33:18.016Z,22.98
2023-02-22T10:35:46.860Z,26.95
2023-02-22T10:38:20.083Z,23.13
2023-02-22T10:41:15.536Z,22.52
2023-02-22T10:43:43.473Z,25.83
2023-02-22T10:46:13.577Z,21.80
2023-02-22T10:48:40.729Z,21.00
2023-02-22T10:51:08.563Z,22.17
2023-02-22T10:53:38.205Z,23.05
2023-02-22T10:56:08.881Z,22.88
2023-02-22T10:59:02.574Z,25.75
2023-02-22T11:01:32.408Z,24.10
2023-02-22T11:04:07.701Z,27.40
2023-02-22T11:06:34.921Z,26.92
2023-02-22T11:09:10.420Z,22.77
2023-02-22T11:11:37.692Z,24.98
2023-02-22T11:14:06.640Z,25.85
2023-02-22T11:16:42.042Z,28.80
2023-02-22T11:19:24.704Z,26.17
2023-02-22T11:32:53.152Z,22.52
2023-02-22T11:35:50.325Z,19.55
2023-02-22T11:38:21.209Z,22.23
2023-02-22T11:41:04.294Z,23.35
2023-02-22T11:43:31.303Z,16.83
2023-02-22T11:46:02.390Z,21.90
2023-02-22T11:48:31.062Z,16.20
2023-02-22T11:51:18.886Z,18.15
2023-02-22T11:53:53.392Z,19.10
2023-02-22T11:59:18.894Z,17.92
2023-02-22T12:01:51.349Z,21.52
2023-02-22T12:04:42.962Z,20.67
2023-02-22T12:07:16.093Z,13.02
2023-02-22T12:10:01.073Z,17.70
2023-02-22T12:12:38.269Z,18.10
2023-02-22T12:15:23.916Z,14.48
2023-02-22T12:18:00.551Z,16.00
2023-02-22T12:20:40.170Z,14.93
2023-02-22T12:23:12.918Z,14.27
2023-02-22T12:25:47.322Z,16.90
2023-02-22T12:28:29.026Z,13.23
2023-02-22T12:31:19.218Z,15.38
2023-02-22T12:33:51.802Z,15.60
2023-02-22T12:36:20.894Z,13.52
2023-02-22T12:38:52.211Z,14.65
2023-02-22T12:41:26.927Z,15.25
2023-02-22T12:44:02.775Z,15.40
2023-02-22T12:46:37.880Z,14.50
2023-02-22T12:49:24.797Z,14.68
2023-02-22T12:52:20.587Z,13.95
2023-02-22T12:55:01.699Z,17.33
2023-02-22T12:57:38.182Z,12.90
2023-02-22T13:00:23.064Z,12.85
2023-02-22T13:03:01.758Z,13.40
2023-02-22T13:05:31.256Z,12.35
2023-02-22T13:08:19.852Z,10.98
2023-02-22T13:10:52.616Z,8.43
2023-02-22T13:13:43.459Z,10.88
2023-02-22T13:16:10.017Z,11.43
2023-02-22T13:18:50.570Z,8.88
2023-02-22T13:21:30.023Z,10.48
2023-02-22T13:24:05.473Z,11.27
2023-02-22T13:26:34.969Z,11.55
2023-02-22T13:29:08.668Z,11.00
2023-02-22T13:32:04.980Z,12.52
2023-02-22T13:34:56.838Z,14.32
2023-02-22T13:37:45.787Z,12.05
2023-02-22T13:40:44.101Z,13.60
2023-02-22T13:43:42.374Z,14.23
2023-02-22T13:46:31.967Z,11.90
2023-02-22T13:49:24.121Z,11.27
2023-02-22T13:51:55.644Z,10.00
2023-02-22T13:54:57.381Z,9.43
2023-02-22T13:57:26.315Z,10.98
2023-02-22T14:00:22.798Z,9.93
2023-02-22T14:03:14.455Z,9.02
2023-02-22T14:05:50.026Z,10.05
2023-02-22T14:08:19.900Z,10.30
2023-02-22T14:10:55.019Z,10.75
2023-02-22T14:13:26.923Z,10.15
2023-02-22T14:16:02.580Z,10.73
2023-02-22T14:18:43.259Z,10.43
2023-02-22T14:21:20.498Z,8.40
2023-02-22T14:23:48.524Z,11.32
2023-02-22T14:26:24.062Z,10.25
2023-02-22T14:29:10.874Z,9.45
2023-02-22T14:31:43.412Z,11.07
2023-02-22T14:34:15.294Z,14.18
2023-02-22T14:36:47.822Z,13.73
2023-02-22T14:39:38.334Z,12.40
2023-02-22T14:42:16.944Z,10.18
2023-02-22T14:44:44.674Z,10.25
2023-02-22T14:47:16.676Z,10.57
2023-02-22T14:49:44.102Z,11.00
2023-02-22T14:52:27.912Z,11.38
2023-02-22T14:55:11.394Z,9.57
2023-02-22T14:57:49.932Z,11.15
2023-02-22T15:00:33.259Z,11.23
2023-02-22T15:03:00.263Z,9.68
2023-02-22T15:05:30.008Z,9.70
2023-02-22T15:07:59.110Z,11.07
2023-02-22T15:10:31.717Z,12.55
2023-02-22T15:13:09.769Z,12.25
2023-02-22T15:15:38.368Z,11.60
2023-02-22T15:18:06.626Z,11.38
2023-02-22T15:20:35.098Z,14.13
2023-02-22T15:23:01.976Z,13.50
2023-02-22T15:25:30.645Z,13.07
2023-02-22T15:28:03.886Z,12.18
2023-02-22T15:30:32.891Z,14.70
2023-02-22T15:33:14.686Z,12.90
2023-02-22T15:35:41.497Z,11.18
2023-02-22T15:38:11.246Z,21.40
2023-02-22T15:40:42.826Z,14.68
2023-02-22T15:43:19.692Z,10.80
2023-02-22T15:45:46.397Z,14.20
2023-02-22T15:48:14.781Z,13.48
2023-02-22T15:51:04.618Z,14.75
2023-02-22T15:53:43.207Z,14.48
2023-02-22T15:56:18.109Z,14.32
2023-02-22T15:58:46.094Z,12.98
2023-02-22T16:01:17.040Z,15.55
2023-02-22T16:03:49.075Z,10.77
2023-02-22T16:06:28.646Z,10.38
2023-02-22T16:08:55.961Z,10.27
2023-02-22T16:11:39.778Z,17.08
2023-02-22T16:14:23.175Z,10.57
2023-02-22T16:16:49.875Z,12.43
2023-02-22T16:19:22.373Z,12.95
2023-02-22T16:21:53.535Z,15.65
2023-02-22T16:24:31.548Z,12.25
2023-02-22T16:27:15.806Z,14.52
2023-02-22T16:29:42.707Z,14.32
2023-02-22T16:32:09.499Z,13.50
2023-02-22T16:34:36.420Z,10.63
2023-02-22T16:37:03.072Z,14.63
2023-02-22T16:39:31.021Z,16.10
2023-02-22T16:42:02.365Z,21.98
2023-02-22T16:44:29.154Z,16.05
2023-02-22T16:46:57.671Z,15.38
2023-02-22T16:49:24.692Z,14.48
2023-02-22T16:51:55.464Z,17.52
2023-02-22T16:54:43.669Z,19.33
2023-02-22T16:57:18.016Z,17.05
2023-02-22T16:59:44.653Z,17.83
2023-02-22T17:02:14.300Z,23.17
2023-02-22T17:04:41.092Z,17.10
2023-02-22T17:07:09.242Z,22.40
2023-02-22T17:09:36.165Z,18.67
2023-02-22T17:12:02.819Z,20.80
2023-02-22T17:14:31.878Z,20.17
2023-02-22T17:16:59.601Z,20.02
2023-02-22T17:19:26.551Z,24.75
2023-02-22T17:21:53.579Z,23.95
2023-02-22T17:24:24.869Z,23.35
2023-02-22T17:26:53.047Z,20.50
2023-02-22T17:29:21.004Z,18.20
2023-02-22T17:31:49.042Z,25.33
2023-02-22T17:34:15.697Z,22.98
2023-02-22T17:36:42.561Z,20.83
2023-02-22T17:39:10.584Z,22.73
2023-02-22T17:41:40.267Z,18.98
2023-02-22T17:44:07.201Z,17.10
2023-02-22T17:46:34.972Z,16.88
2023-02-22T17:49:03.210Z,16.73
2023-02-22T17:51:29.896Z,22.58
2023-02-22T17:53:56.528Z,19.42
2023-02-22T17:56:23.439Z,19.73
2023-02-22T17:58:53.296Z,17.23
2023-02-22T18:01:20.906Z,22.67
2023-02-22T18:03:47.804Z,19.05
2023-02-22T18:06:17.932Z,16.05
2023-02-22T18:08:45.000Z,16.33
2023-02-22T18:11:11.647Z,16.98
2023-02-22T18:13:38.292Z,16.15
2023-02-22T18:16:05.798Z,22.27
2023-02-22T18:18:32.782Z,19.88
2023-02-22T18:21:00.026Z,17.48
2023-02-22T18:23:30.468Z,17.77
2023-02-22T18:26:09.786Z,25.50
2023-02-22T18:28:37.575Z,24.63
2023-02-22T18:31:23.151Z,20.90
2023-02-22T18:33:51.073Z,21.85
2023-02-22T18:36:23.455Z,19.35
2023-02-22T18:38:51.677Z,21.80
2023-02-22T18:41:19.186Z,18.58
2023-02-22T18:43:50.856Z,24.95
2023-02-22T18:46:19.743Z,19.35
2023-02-22T18:48:47.138Z,18.35
2023-02-22T18:51:20.370Z,20.95
2023-02-22T18:53:48.014Z,18.77
2023-02-22T18:56:18.018Z,23.15
2023-02-22T18:58:45.025Z,18.80
2023-02-22T19:01:17.247Z,22.98
2023-02-22T19:03:44.659Z,23.13
2023-02-22T19:06:11.316Z,26.70
2023-02-22T19:08:44.545Z,37.00
2023-02-22T19:11:17.969Z,28.83
2023-02-22T19:13:46.385Z,29.83
2023-02-22T19:16:13.675Z,28.77
2023-02-22T19:18:40.560Z,31.83
2023-02-22T19:21:10.850Z,31.80
2023-02-22T19:23:39.549Z,27.80
2023-02-22T19:26:09.490Z,26.33
2023-02-22T19:28:36.175Z,25.42
2023-02-22T19:31:17.314Z,29.52
2023-02-22T19:33:44.643Z,27.17
2023-02-22T19:36:11.863Z,24.67
2023-02-22T19:38:38.494Z,30.10
2023-02-22T19:41:14.990Z,25.02
2023-02-22T19:43:41.719Z,26.50
2023-02-22T19:46:08.419Z,30.17
2023-02-22T19:48:35.372Z,32.58
2023-02-22T19:51:06.540Z,32.40
2023-02-22T19:53:39.020Z,28.67
2023-02-22T19:56:09.547Z,22.90
2023-02-22T19:58:40.416Z,25.00
2023-02-22T20:01:22.828Z,39.15
2023-02-22T20:03:56.152Z,29.95
2023-02-22T20:06:26.462Z,24.00
2023-02-22T20:08:53.413Z,25.58
2023-02-22T20:11:22.229Z,28.65
2023-02-22T20:13:48.889Z,24.17
2023-02-22T20:16:15.888Z,22.92
2023-02-22T20:18:46.077Z,25.92
2023-02-22T20:21:22.402Z,28.70
2023-02-22T20:23:49.088Z,27.23
2023-02-22T20:26:20.615Z,26.27
2023-02-22T20:28:47.298Z,26.15
2023-02-22T20:31:14.178Z,23.70
2023-02-22T20:33:41.900Z,27.65
2023-02-22T20:36:10.391Z,28.02
2023-02-22T20:38:37.480Z,26.92
2023-02-22T20:41:07.939Z,23.27
2023-02-22T20:43:34.726Z,25.25
2023-02-22T20:46:03.024Z,29.48
2023-02-22T20:48:29.812Z,26.00
2023-02-22T20:50:56.438Z,27.55
2023-02-22T20:53:25.628Z,24.65
2023-02-22T20:55:52.467Z,30.40
2023-02-22T20:58:21.669Z,25.27
2023-02-22T21:00:48.645Z,29.95
2023-02-22T21:03:15.255Z,26.98
2023-02-22T21:05:44.022Z,27.77
2023-02-22T21:08:12.311Z,29.85
2023-02-22T21:10:42.981Z,28.95
2023-02-22T21:13:11.521Z,31.83
2023-02-22T21:15:38.436Z,30.23
2023-02-22T21:18:05.305Z,28.90
2023-02-22T21:20:32.081Z,30.80
2023-02-22T21:23:01.839Z,36.30
2023-02-22T21:25:31.477Z,35.63
2023-02-22T21:28:01.221Z,29.38
2023-02-22T21:30:27.860Z,34.17
2023-02-22T21:32:55.598Z,37.95
2023-02-22T21:35:23.080Z,33.28
2023-02-22T21:37:49.860Z,33.40
2023-02-22T21:40:19.086Z,34.65
2023-02-22T21:42:48.163Z,37.08
2023-02-22T21:45:18.516Z,38.42
2023-02-22T21:47:48.273Z,37.53
2023-02-22T21:50:16.500Z,36.75
2023-02-22T21:52:43.981Z,36.03
2023-02-22T21:55:10.736Z,35.53
2023-02-22T21:57:37.996Z,41.22
2023-02-22T22:00:18.187Z,36.70
2023-02-22T22:02:48.255Z,39.75
2023-02-22T22:05:26.250Z,44.47
2023-02-22T22:07:53.061Z,37.20
2023-02-22T22:10:25.189Z,39.35
2023-02-22T22:12:52.760Z,37.00
2023-02-22T22:15:26.460Z,42.10
2023-02-22T22:17:53.058Z,46.90
2023-02-22T22:20:21.845Z,52.03
2023-02-22T22:22:49.142Z,46.28
2023-02-22T22:25:19.033Z,41.05
2023-02-22T22:27:45.948Z,41.88
2023-02-22T22:30:13.172Z,42.30
2023-02-22T22:32:40.187Z,44.90
2023-02-22T22:35:14.399Z,46.92
2023-02-22T22:37:50.977Z,42.53
2023-02-22T22:40:17.895Z,41.22
2023-02-22T22:42:45.484Z,51.65
2023-02-22T22:45:12.621Z,38.35
2023-02-22T22:47:41.268Z,41.35
2023-02-22T22:50:10.740Z,44.53
2023-02-22T22:52:37.546Z,38.90
2023-02-22T22:55:05.182Z,39.33
2023-02-22T22:57:31.787Z,40.85
2023-02-22T23:00:00.156Z,41.80
2023-02-22T23:02:27.083Z,42.30
2023-02-22T23:04:53.957Z,49.50
2023-02-22T23:07:20.981Z,41.42
2023-02-22T23:09:47.634Z,43.22
2023-02-22T23:12:18.083Z,41.80
2023-02-22T23:14:44.943Z,40.58
2023-02-22T23:17:14.854Z,38.58
2023-02-22T23:19:42.272Z,48.10
2023-02-22T23:22:08.965Z,42.30
2023-02-22T23:24:36.249Z,40.80
2023-02-22T23:27:07.072Z,45.85
2023-02-22T23:29:36.450Z,41.67
2023-02-22T23:32:05.602Z,44.80
2023-02-22T23:34:32.552Z,48.40
2023-02-22T23:36:59.174Z,39.15
2023-02-22T23:39:26.143Z,42.28
2023-02-22T23:41:53.428Z,46.67
2023-02-22T23:44:21.428Z,48.55
2023-02-22T23:46:48.938Z,42.95
2023-02-22T23:49:20.059Z,42.80
2023-02-22T23:51:46.756Z,40.25
2023-02-22T23:54:15.504Z,43.90
2023-02-22T23:56:47.255Z,40.75
2023-02-22T23:59:14.241Z,41.13
